Funk, Nebraska
Current Conditions -  °F | °C
As of 12:55 AM on Monday 22 Dec 2014 (Local Time) from KHDE Reporting Station
Haze Haze  
Wind Chill: 33°   Ceiling: 800
Heat Index: 39°   Visibility: 5mi
Dew Point: 37°   Wind: 9mph
Humidity: 93%   Direction: 200°SSW
Pressure: 29.5"   Gusts: NA
Location:  40.46°N, 99.25°W
Report Text: KHDE 220655Z AUTO 20008KT 5SM BR SCT004 BKN008 OVC085 04/03 A2950 RMK AO2 T00380028
Loading
Personal Weather Stations






























Interactive Weather Map New forecast layout! Learn more

10-Day Weather Forecast

Advertisements
Track Severe Weather on mobile